createdAt,value
2022-12-08T00:02:13.491Z,96049.47
2022-12-08T00:04:58.878Z,96043.06
2022-12-08T00:07:43.811Z,96037.81
2022-12-08T00:10:48.453Z,96030.00
2022-12-08T00:13:33.609Z,96026.38
2022-12-08T00:16:18.416Z,96021.81
2022-12-08T00:19:03.710Z,96018.78
2022-12-08T00:21:48.741Z,96016.75
2022-12-08T00:24:33.785Z,96016.72
2022-12-08T00:27:18.788Z,96017.69
2022-12-08T00:30:03.644Z,96018.06
2022-12-08T00:32:48.490Z,96014.13
2022-12-08T00:35:34.853Z,96011.19
2022-12-08T00:38:21.442Z,96007.34
2022-12-08T00:41:06.349Z,96004.25
2022-12-08T00:43:51.257Z,96001.34
2022-12-08T00:46:36.212Z,96000.41
2022-12-08T00:49:21.271Z,96009.22
2022-12-08T00:52:06.176Z,96005.47
2022-12-08T00:54:51.215Z,96006.94
2022-12-08T00:57:35.977Z,96006.59
2022-12-08T01:00:20.933Z,96005.56
2022-12-08T01:03:05.878Z,96007.56
2022-12-08T01:05:50.844Z,96004.13
2022-12-08T01:08:35.704Z,96005.28
2022-12-08T01:11:20.831Z,96008.59
2022-12-08T01:14:05.827Z,95997.09
2022-12-08T01:16:50.690Z,96003.31
2022-12-08T01:19:36.099Z,95997.16
2022-12-08T01:22:21.002Z,95995.28
2022-12-08T01:25:05.826Z,95998.63
2022-12-08T01:27:50.639Z,95999.34
2022-12-08T01:30:35.651Z,96007.09
2022-12-08T01:33:20.547Z,95996.28
2022-12-08T01:36:05.446Z,95999.84
2022-12-08T01:38:50.445Z,95993.88
2022-12-08T01:41:35.409Z,95987.28
2022-12-08T01:44:20.402Z,95996.91
2022-12-08T01:47:05.450Z,95986.13
2022-12-08T01:49:50.306Z,95987.47
2022-12-08T01:52:35.251Z,95985.34
2022-12-08T01:55:20.191Z,95978.47
2022-12-08T01:58:05.134Z,95981.28
2022-12-08T02:00:50.132Z,95979.69
2022-12-08T02:03:35.144Z,95982.13
2022-12-08T02:06:20.003Z,95976.34
2022-12-08T02:09:05.005Z,95972.72
2022-12-08T02:11:49.834Z,95974.97
2022-12-08T02:14:34.810Z,95973.44
2022-12-08T02:17:19.648Z,95967.41
2022-12-08T02:20:04.697Z,95965.25
2022-12-08T02:22:49.768Z,95961.31
2022-12-08T02:25:34.559Z,95955.41
2022-12-08T02:28:19.509Z,95948.56
2022-12-08T02:31:04.481Z,95948.97
2022-12-08T02:33:49.385Z,95948.59
2022-12-08T02:36:34.323Z,95942.16
2022-12-08T02:39:19.148Z,95948.00
2022-12-08T02:42:03.933Z,95939.06
2022-12-08T02:44:48.850Z,95939.16
2022-12-08T02:47:33.713Z,95932.25
2022-12-08T02:50:18.526Z,95930.69
2022-12-08T02:53:03.467Z,95926.44
2022-12-08T02:55:48.289Z,95931.00
2022-12-08T02:58:33.228Z,95924.63
2022-12-08T03:01:18.183Z,95922.53
2022-12-08T03:04:03.200Z,95914.28
2022-12-08T03:06:48.089Z,95917.13
2022-12-08T03:09:33.123Z,95910.03
2022-12-08T03:12:18.201Z,95916.59
2022-12-08T03:15:03.237Z,95912.41
2022-12-08T03:17:48.414Z,95910.00
2022-12-08T03:20:33.194Z,95907.78
2022-12-08T03:23:18.075Z,95906.63
2022-12-08T03:26:03.125Z,95906.53
2022-12-08T03:28:48.019Z,95903.34
2022-12-08T03:31:32.909Z,95901.97
2022-12-08T03:34:17.988Z,95902.56
2022-12-08T03:37:02.854Z,95899.78
2022-12-08T03:39:47.781Z,95895.63
2022-12-08T03:42:32.798Z,95890.41
2022-12-08T03:45:17.705Z,95893.69
2022-12-08T03:48:02.634Z,95880.00
2022-12-08T03:50:47.533Z,95886.63
2022-12-08T03:53:32.546Z,95874.28
2022-12-08T03:56:17.555Z,95870.25
2022-12-08T03:59:02.526Z,95868.97
2022-12-08T04:01:47.511Z,95863.06
2022-12-08T04:04:32.397Z,95868.06
2022-12-08T04:07:17.581Z,95865.91
2022-12-08T04:10:02.734Z,95859.75
2022-12-08T04:12:48.012Z,95857.69
2022-12-08T04:15:32.787Z,95862.69
2022-12-08T04:18:17.937Z,95858.81
2022-12-08T04:21:02.873Z,95852.31
2022-12-08T04:23:47.770Z,95851.94
2022-12-08T04:26:32.680Z,95850.75
2022-12-08T04:29:17.525Z,95852.22
2022-12-08T04:32:02.521Z,95854.03
2022-12-08T04:34:47.508Z,95847.69
2022-12-08T04:37:32.433Z,95848.69
2022-12-08T04:40:17.471Z,95846.56
2022-12-08T04:43:02.410Z,95853.13
2022-12-08T04:45:47.479Z,95864.53
2022-12-08T04:48:32.450Z,95855.97
2022-12-08T04:51:17.332Z,95851.84
2022-12-08T04:54:02.350Z,95853.22
2022-12-08T04:56:47.326Z,95856.63
2022-12-08T04:59:32.158Z,95849.97
2022-12-08T05:02:17.198Z,95848.00
2022-12-08T05:05:02.519Z,95847.69
2022-12-08T05:07:47.414Z,95850.44
2022-12-08T05:10:32.356Z,95840.22
2022-12-08T05:13:17.314Z,95842.72
2022-12-08T05:16:02.337Z,95835.75
2022-12-08T05:18:47.554Z,95828.97
2022-12-08T05:21:32.574Z,95832.19
2022-12-08T05:24:17.269Z,95834.97
2022-12-08T05:27:02.210Z,95845.56
2022-12-08T05:29:47.204Z,95833.34
2022-12-08T05:32:32.076Z,95829.56
2022-12-08T05:35:17.114Z,95830.41
2022-12-08T05:38:01.931Z,95838.22
2022-12-08T05:40:46.865Z,95832.88
2022-12-08T05:43:31.693Z,95827.03
2022-12-08T05:46:16.599Z,95828.47
2022-12-08T05:49:01.956Z,95827.53
2022-12-08T05:51:46.999Z,95837.00
2022-12-08T05:54:31.944Z,95826.22
2022-12-08T05:57:16.688Z,95835.38
2022-12-08T06:00:02.299Z,95836.03
2022-12-08T06:02:47.859Z,95833.06
2022-12-08T06:05:33.081Z,95831.38
2022-12-08T06:08:18.071Z,95839.22
2022-12-08T06:11:03.527Z,95835.25
2022-12-08T06:13:48.415Z,95837.41
2022-12-08T06:16:33.306Z,95825.63
2022-12-08T06:19:18.310Z,95830.78
2022-12-08T06:22:03.174Z,95826.16
2022-12-08T06:24:48.272Z,95825.41
2022-12-08T06:27:33.138Z,95827.47
2022-12-08T06:30:17.940Z,95833.56
2022-12-08T06:33:02.800Z,95831.75
2022-12-08T06:35:47.756Z,95836.63
2022-12-08T06:38:32.772Z,95831.88
2022-12-08T06:41:17.599Z,95832.38
2022-12-08T06:44:02.558Z,95831.00
2022-12-08T06:46:47.424Z,95827.16
2022-12-08T06:49:32.460Z,95825.72
2022-12-08T06:52:17.311Z,95835.38
2022-12-08T06:55:02.413Z,95825.97
2022-12-08T06:57:47.350Z,95821.63
2022-12-08T07:00:32.373Z,95822.69
2022-12-08T07:03:17.473Z,95823.41
2022-12-08T07:06:04.293Z,95816.78
2022-12-08T07:08:49.733Z,95827.88
2022-12-08T07:11:34.689Z,95821.63
2022-12-08T07:14:19.763Z,95827.59
2022-12-08T07:17:04.975Z,95829.41
2022-12-08T07:19:50.230Z,95816.59
2022-12-08T07:22:35.108Z,95815.16
2022-12-08T07:25:20.004Z,95822.59
2022-12-08T07:28:04.847Z,95827.22
2022-12-08T07:30:49.729Z,95835.34
2022-12-08T07:33:34.665Z,95822.97
2022-12-08T07:36:19.616Z,95824.22
2022-12-08T07:39:04.380Z,95818.69
2022-12-08T07:41:49.268Z,95829.09
2022-12-08T07:44:34.116Z,95829.44
2022-12-08T07:47:18.996Z,95822.38
2022-12-08T07:50:04.335Z,95822.19
2022-12-08T07:52:49.756Z,95820.22
2022-12-08T07:55:34.598Z,95823.03
2022-12-08T07:58:19.612Z,95825.63
2022-12-08T08:01:04.595Z,95815.53
2022-12-08T08:03:50.029Z,95820.94
2022-12-08T08:06:34.971Z,95819.78
2022-12-08T08:09:19.816Z,95818.81
2022-12-08T08:12:29.478Z,95815.53
2022-12-08T08:15:09.904Z,95818.06
2022-12-08T08:17:54.757Z,95823.00
2022-12-08T08:20:39.686Z,95821.41
2022-12-08T08:23:24.576Z,95824.00
2022-12-08T08:26:09.485Z,95819.25
2022-12-08T08:28:54.316Z,95814.28
2022-12-08T08:31:39.283Z,95817.22
2022-12-08T08:34:24.532Z,95820.34
2022-12-08T08:37:09.489Z,95814.13
2022-12-08T08:39:54.927Z,95811.06
2022-12-08T08:42:39.789Z,95816.75
2022-12-08T08:45:24.638Z,95808.78
2022-12-08T08:48:09.401Z,95814.19
2022-12-08T08:50:54.441Z,95812.09
2022-12-08T08:53:39.271Z,95814.16
2022-12-08T08:56:24.373Z,95812.91
2022-12-08T08:59:09.377Z,95809.13
2022-12-08T09:01:54.459Z,95802.00
2022-12-08T09:04:39.850Z,95805.22
2022-12-08T09:07:24.733Z,95806.53
2022-12-08T09:10:09.760Z,95806.53
2022-12-08T09:12:54.750Z,95802.09
2022-12-08T09:15:39.691Z,95797.66
2022-12-08T09:18:24.542Z,95788.97
2022-12-08T09:21:09.477Z,95791.78
2022-12-08T09:23:54.556Z,95777.84
2022-12-08T09:26:39.494Z,95777.88
2022-12-08T09:29:24.415Z,95773.63
2022-12-08T09:32:09.387Z,95780.88
2022-12-08T09:34:54.254Z,95782.66
2022-12-08T09:37:39.078Z,95785.47
2022-12-08T09:40:23.919Z,95787.72
2022-12-08T09:43:08.780Z,95795.22
2022-12-08T09:45:53.742Z,95800.88
2022-12-08T09:48:38.765Z,95798.72
2022-12-08T09:51:23.602Z,95784.38
2022-12-08T09:54:08.681Z,95783.31
2022-12-08T09:56:54.177Z,95773.09
2022-12-08T09:59:39.169Z,95773.94
2022-12-08T10:02:24.104Z,95773.88
2022-12-08T10:05:09.581Z,95766.75
2022-12-08T10:07:54.615Z,95761.19
2022-12-08T10:10:39.281Z,95757.22
2022-12-08T10:13:24.348Z,95750.91
2022-12-08T10:16:09.436Z,95742.09
2022-12-08T10:18:54.788Z,95739.06
2022-12-08T10:21:39.782Z,95735.78
2022-12-08T10:24:24.749Z,95734.59
2022-12-08T10:27:09.660Z,95736.78
2022-12-08T10:29:54.488Z,95730.31
2022-12-08T10:32:39.324Z,95726.66
2022-12-08T10:35:24.168Z,95718.59
2022-12-08T10:38:09.297Z,95725.25
2022-12-08T10:40:54.231Z,95723.69
2022-12-08T10:43:39.038Z,95716.56
2022-12-08T10:46:23.897Z,95715.75
2022-12-08T10:49:08.828Z,95708.38
2022-12-08T10:51:53.848Z,95702.84
2022-12-08T10:54:38.756Z,95705.28
2022-12-08T10:57:23.922Z,95702.25
2022-12-08T11:00:13.850Z,95703.50
2022-12-08T11:02:59.424Z,95697.66
2022-12-08T11:05:44.965Z,95689.72
2022-12-08T11:08:29.878Z,95682.81
2022-12-08T11:11:14.708Z,95678.97
2022-12-08T11:13:59.518Z,95683.81
2022-12-08T11:16:44.503Z,95683.19
2022-12-08T11:19:29.742Z,95677.66
2022-12-08T11:22:14.606Z,95679.53
2022-12-08T11:24:59.627Z,95678.31
2022-12-08T11:27:44.508Z,95668.38
2022-12-08T11:30:29.480Z,95666.09
2022-12-08T11:33:14.162Z,95658.16
2022-12-08T11:35:59.014Z,95656.47
2022-12-08T11:38:43.961Z,95652.31
2022-12-08T11:41:28.908Z,95645.69
2022-12-08T11:44:13.819Z,95637.63
2022-12-08T11:46:58.696Z,95633.66
2022-12-08T11:49:43.614Z,95637.91
2022-12-08T11:52:28.398Z,95631.22
2022-12-08T11:55:13.289Z,95632.81
2022-12-08T11:57:58.149Z,95629.97
2022-12-08T12:00:43.056Z,95631.97
2022-12-08T12:03:28.071Z,95625.81
2022-12-08T12:06:30.471Z,95628.59
2022-12-08T12:09:18.312Z,95624.66
2022-12-08T12:12:03.115Z,95619.97
2022-12-08T12:14:48.104Z,95612.84
2022-12-08T12:17:32.889Z,95614.13
2022-12-08T12:20:17.805Z,95610.41
2022-12-08T12:23:02.556Z,95602.78
2022-12-08T12:25:47.576Z,95600.06
2022-12-08T12:28:32.577Z,95601.00
2022-12-08T12:31:17.645Z,95597.75
2022-12-08T12:34:02.960Z,95595.16
2022-12-08T12:36:47.772Z,95578.84
2022-12-08T12:39:32.562Z,95584.41
2022-12-08T12:42:17.434Z,95585.81
2022-12-08T12:45:02.341Z,95575.00
2022-12-08T12:47:52.371Z,95588.16
2022-12-08T12:50:41.037Z,95584.50
2022-12-08T12:53:25.892Z,95586.03
2022-12-08T12:56:10.803Z,95582.38
2022-12-08T12:58:55.704Z,95581.28
2022-12-08T13:01:40.715Z,95567.38
2022-12-08T13:04:25.592Z,95573.19
2022-12-08T13:07:10.512Z,95573.81
2022-12-08T13:09:55.623Z,95573.53
2022-12-08T13:12:40.413Z,95581.56
2022-12-08T13:15:25.396Z,95566.06
2022-12-08T13:18:10.311Z,95559.69
2022-12-08T13:20:55.313Z,95555.53
2022-12-08T13:23:40.108Z,95564.84
2022-12-08T13:26:25.102Z,95559.09
2022-12-08T13:29:09.976Z,95560.53
2022-12-08T13:31:54.889Z,95552.16
2022-12-08T13:34:39.890Z,95542.88
2022-12-08T13:37:24.871Z,95545.69
2022-12-08T13:40:09.887Z,95541.59
2022-12-08T13:42:54.641Z,95530.06
2022-12-08T13:46:41.819Z,95529.59
2022-12-08T13:57:59.826Z,95520.09
2022-12-08T14:00:44.765Z,95508.34
2022-12-08T14:03:30.741Z,95506.69
2022-12-08T14:06:16.115Z,95503.94
2022-12-08T14:09:08.432Z,95513.50
2022-12-08T14:11:55.805Z,95502.16
2022-12-08T14:15:01.992Z,95496.94
2022-12-08T14:17:45.742Z,95501.63
2022-12-08T14:20:30.599Z,95505.06
2022-12-08T14:23:15.497Z,95497.53
2022-12-08T14:26:00.284Z,95506.78
2022-12-08T14:28:45.433Z,95506.56
2022-12-08T14:31:30.503Z,95494.25
2022-12-08T14:34:15.867Z,95487.50
2022-12-08T14:37:00.957Z,95490.22
2022-12-08T14:39:46.037Z,95494.03
2022-12-08T14:42:30.833Z,95497.38
2022-12-08T14:45:15.877Z,95495.72
2022-12-08T14:48:00.790Z,95499.09
2022-12-08T14:50:45.679Z,95500.38
2022-12-08T14:53:30.462Z,95495.50
2022-12-08T14:56:15.266Z,95492.16
2022-12-08T14:59:00.136Z,95497.97
2022-12-08T15:01:45.173Z,95494.38
2022-12-08T15:04:30.190Z,95492.03
2022-12-08T15:07:15.617Z,95492.16
2022-12-08T15:10:00.353Z,95494.19
2022-12-08T15:12:45.232Z,95492.88
2022-12-08T15:15:30.282Z,95481.66
2022-12-08T15:18:18.284Z,95484.91
2022-12-08T15:21:03.244Z,95481.69
2022-12-08T15:23:48.262Z,95477.63
2022-12-08T15:26:33.121Z,95485.78
2022-12-08T15:29:17.977Z,95471.97
2022-12-08T15:32:02.922Z,95483.56
2022-12-08T15:34:47.848Z,95474.38
2022-12-08T15:37:32.731Z,95475.22
2022-12-08T15:40:17.699Z,95476.59
2022-12-08T15:43:02.731Z,95466.28
2022-12-08T15:45:57.994Z,95469.53
2022-12-08T15:48:44.205Z,95467.50
2022-12-08T15:51:29.098Z,95469.13
2022-12-08T15:54:14.216Z,95469.94
2022-12-08T16:00:04.756Z,95467.72
2022-12-08T16:03:22.548Z,95469.50
2022-12-08T16:06:39.013Z,95468.69
2022-12-08T16:09:11.337Z,95457.03
2022-12-08T16:12:06.458Z,95461.41
2022-12-08T16:17:58.205Z,95461.00
2022-12-08T16:23:48.133Z,95465.25
2022-12-08T16:27:42.351Z,95463.44
2022-12-08T16:29:38.193Z,95470.13
2022-12-08T16:32:23.141Z,95462.63
2022-12-08T16:35:08.100Z,95457.75
2022-12-08T16:37:52.974Z,95460.09
2022-12-08T16:40:37.950Z,95460.34
2022-12-08T16:43:22.931Z,95466.25
2022-12-08T16:46:07.982Z,95468.09
2022-12-08T16:48:53.241Z,95463.63
2022-12-08T16:51:38.236Z,95460.97
2022-12-08T16:54:23.172Z,95458.66
2022-12-08T16:57:08.092Z,95463.97
2022-12-08T16:59:53.119Z,95459.34
2022-12-08T17:02:37.991Z,95464.16
2022-12-08T17:05:22.877Z,95452.03
2022-12-08T17:08:08.176Z,95462.84
2022-12-08T17:10:53.134Z,95465.06
2022-12-08T17:13:38.113Z,95463.41
2022-12-08T17:16:23.085Z,95464.44
2022-12-08T17:19:08.550Z,95463.63
2022-12-08T17:21:53.744Z,95461.00
2022-12-08T17:24:38.764Z,95463.03
2022-12-08T17:27:23.626Z,95458.13
2022-12-08T17:30:08.908Z,95455.91
2022-12-08T17:32:54.091Z,95446.38
2022-12-08T17:35:39.016Z,95444.94
2022-12-08T17:38:24.012Z,95452.47
2022-12-08T17:41:08.690Z,95453.69
2022-12-08T17:43:53.504Z,95445.56
2022-12-08T17:46:42.088Z,95451.84
2022-12-08T17:49:28.193Z,95456.94
2022-12-08T17:52:13.117Z,95455.31
2022-12-08T17:54:58.224Z,95453.47
2022-12-08T17:57:43.608Z,95443.47
2022-12-08T18:00:28.667Z,95438.03
2022-12-08T18:03:13.737Z,95437.59
2022-12-08T18:05:58.754Z,95435.97
2022-12-08T18:08:43.672Z,95438.19
2022-12-08T18:11:28.551Z,95441.91
2022-12-08T18:14:13.401Z,95434.34
2022-12-08T18:16:58.625Z,95426.41
2022-12-08T18:19:43.948Z,95427.88
2022-12-08T18:22:29.010Z,95417.88
2022-12-08T18:25:13.851Z,95416.84
2022-12-08T18:27:58.842Z,95421.56
2022-12-08T18:30:43.910Z,95417.03
2022-12-08T18:33:28.883Z,95420.28
2022-12-08T18:36:14.084Z,95419.41
2022-12-08T18:38:58.940Z,95421.09
2022-12-08T18:41:43.850Z,95404.03
2022-12-08T18:44:28.785Z,95398.19
2022-12-08T18:47:13.704Z,95398.56
2022-12-08T18:49:58.664Z,95385.81
2022-12-08T18:52:43.741Z,95383.38
2022-12-08T18:55:28.758Z,95390.41
2022-12-08T18:58:13.533Z,95389.41
2022-12-08T19:00:58.597Z,95381.09
2022-12-08T19:04:04.705Z,95385.34
2022-12-08T19:06:48.392Z,95386.97
2022-12-08T19:09:33.407Z,95391.88
2022-12-08T19:12:18.384Z,95386.78
2022-12-08T19:15:03.750Z,95386.75
2022-12-08T19:17:48.816Z,95384.31
2022-12-08T19:20:33.875Z,95385.97
2022-12-08T19:23:18.931Z,95374.19
2022-12-08T19:26:03.774Z,95384.75
2022-12-08T19:28:48.769Z,95388.41
2022-12-08T19:31:33.841Z,95385.34
2022-12-08T19:34:19.206Z,95394.28
2022-12-08T19:37:04.072Z,95397.72
2022-12-08T19:39:49.038Z,95387.59
2022-12-08T19:42:33.995Z,95387.84
2022-12-08T19:45:18.966Z,95384.38
2022-12-08T19:48:04.011Z,95387.44
2022-12-08T19:50:48.921Z,95375.47
2022-12-08T19:53:33.946Z,95380.97
2022-12-08T19:56:18.697Z,95375.84
2022-12-08T19:59:03.609Z,95382.97
2022-12-08T20:01:48.615Z,95383.56
2022-12-08T20:04:33.913Z,95382.78
2022-12-08T20:07:18.825Z,95374.44
2022-12-08T20:10:04.231Z,95366.28
2022-12-08T20:12:49.921Z,95365.16
2022-12-08T20:15:34.846Z,95359.84
2022-12-08T20:18:19.647Z,95368.72
2022-12-08T20:21:04.460Z,95366.19
2022-12-08T20:23:49.457Z,95358.00
2022-12-08T20:26:34.291Z,95354.94
2022-12-08T20:29:19.269Z,95349.41
2022-12-08T20:32:04.339Z,95351.00
2022-12-08T20:34:49.686Z,95349.38
2022-12-08T20:37:34.706Z,95344.25
2022-12-08T20:40:19.756Z,95344.03
2022-12-08T20:43:04.784Z,95341.19
2022-12-08T20:45:49.645Z,95339.84
2022-12-08T20:48:34.627Z,95329.47
2022-12-08T20:51:19.734Z,95331.84
2022-12-08T20:54:05.243Z,95343.25
2022-12-08T20:56:50.745Z,95340.19
2022-12-08T20:59:35.642Z,95345.00
2022-12-08T21:02:21.170Z,95337.78
2022-12-08T21:05:06.503Z,95336.38
2022-12-08T21:07:51.867Z,95344.06
2022-12-08T21:10:40.787Z,95355.09
2022-12-08T21:13:29.150Z,95360.97
2022-12-08T21:16:14.369Z,95370.13
2022-12-08T21:18:59.219Z,95374.78
2022-12-08T21:21:44.147Z,95374.50
2022-12-08T21:24:33.941Z,95377.16
2022-12-08T21:27:19.896Z,95371.94
2022-12-08T21:30:05.255Z,95370.31
2022-12-08T21:32:50.742Z,95380.06
2022-12-08T21:35:36.124Z,95376.41
2022-12-08T21:38:20.955Z,95367.72
2022-12-08T21:41:06.025Z,95362.75
2022-12-08T21:43:51.286Z,95358.50
2022-12-08T21:46:36.761Z,95355.84
2022-12-08T21:49:22.022Z,95363.44
2022-12-08T21:52:07.571Z,95364.44
2022-12-08T21:54:53.028Z,95366.91
2022-12-08T21:57:38.336Z,95358.91
2022-12-08T22:00:23.681Z,95365.25
2022-12-08T22:03:09.090Z,95360.53
2022-12-08T22:05:54.639Z,95370.47
2022-12-08T22:08:39.886Z,95362.75
2022-12-08T22:11:25.168Z,95365.59
2022-12-08T22:14:14.362Z,95364.91
2022-12-08T22:17:00.220Z,95366.50
2022-12-08T22:19:45.342Z,95363.16
2022-12-08T22:22:30.318Z,95355.47
2022-12-08T22:25:15.338Z,95353.34
2022-12-08T22:28:00.790Z,95355.97
2022-12-08T22:30:45.488Z,95352.91
2022-12-08T22:33:30.647Z,95355.00
2022-12-08T22:36:15.634Z,95351.28
2022-12-08T22:39:00.618Z,95367.97
2022-12-08T22:41:45.453Z,95361.03
2022-12-08T22:44:30.435Z,95361.28
2022-12-08T22:47:15.523Z,95363.72
2022-12-08T22:50:00.861Z,95355.38
2022-12-08T22:52:46.287Z,95350.25
2022-12-08T22:55:31.279Z,95343.13
2022-12-08T22:58:16.631Z,95338.47
2022-12-08T23:01:01.724Z,95341.50
2022-12-08T23:03:47.021Z,95330.78
2022-12-08T23:06:32.613Z,95324.47
2022-12-08T23:09:18.013Z,95329.94
2022-12-08T23:12:03.011Z,95325.66
2022-12-08T23:14:47.820Z,95336.56
2022-12-08T23:17:33.127Z,95335.91
2022-12-08T23:20:18.392Z,95323.81
2022-12-08T23:23:03.649Z,95323.91
2022-12-08T23:25:48.918Z,95317.44
2022-12-08T23:28:33.766Z,95314.84
2022-12-08T23:31:18.883Z,95319.06
2022-12-08T23:34:04.073Z,95319.50
2022-12-08T23:36:49.117Z,95312.09
2022-12-08T23:39:34.288Z,95314.28
2022-12-08T23:42:19.022Z,95303.19
2022-12-08T23:45:04.316Z,95307.69
2022-12-08T23:47:49.619Z,95300.78
2022-12-08T23:50:34.524Z,95303.91
2022-12-08T23:53:19.371Z,95292.19
2022-12-08T23:56:04.674Z,95291.78
2022-12-08T23:58:50.028Z,95291.41
